sensor_id;sensor_type;location;lat;lon;timestamp;P1;durP1;ratioP1;P2;durP2;ratioP2
56233;SDS011;42141;53.240;6.580;2023-04-10T00:01:49;34.60;;;21.75;;
56233;SDS011;42141;53.240;6.580;2023-04-10T00:04:15;34.42;;;21.85;;
56233;SDS011;42141;53.240;6.580;2023-04-10T00:06:41;33.10;;;21.50;;
56233;SDS011;42141;53.240;6.580;2023-04-10T00:09:07;37.67;;;22.95;;
56233;SDS011;42141;53.240;6.580;2023-04-10T00:11:33;39.28;;;24.15;;
56233;SDS011;42141;53.240;6.580;2023-04-10T00:13:59;37.22;;;23.95;;
56233;SDS011;42141;53.240;6.580;2023-04-10T00:16:25;35.63;;;22.95;;
56233;SDS011;42141;53.240;6.580;2023-04-10T00:18:50;39.47;;;23.67;;
56233;SDS011;42141;53.240;6.580;2023-04-10T00:21:16;37.92;;;24.10;;
56233;SDS011;42141;53.240;6.580;2023-04-10T00:23:42;37.45;;;22.75;;
56233;SDS011;42141;53.240;6.580;2023-04-10T00:26:09;41.95;;;23.25;;
56233;SDS011;42141;53.240;6.580;2023-04-10T00:28:35;37.60;;;23.30;;
56233;SDS011;42141;53.240;6.580;2023-04-10T00:31:05;36.15;;;24.48;;
56233;SDS011;42141;53.240;6.580;2023-04-10T00:33:30;40.35;;;24.98;;
56233;SDS011;42141;53.240;6.580;2023-04-10T00:35:56;40.28;;;24.58;;
56233;SDS011;42141;53.240;6.580;2023-04-10T00:38:22;42.95;;;23.83;;
56233;SDS011;42141;53.240;6.580;2023-04-10T00:40:47;40.00;;;24.77;;
56233;SDS011;42141;53.240;6.580;2023-04-10T00:43:16;39.88;;;24.13;;
56233;SDS011;42141;53.240;6.580;2023-04-10T00:45:44;37.92;;;24.02;;
56233;SDS011;42141;53.240;6.580;2023-04-10T00:48:10;41.63;;;24.83;;
56233;SDS011;42141;53.240;6.580;2023-04-10T00:50:36;39.67;;;25.30;;
56233;SDS011;42141;53.240;6.580;2023-04-10T00:53:02;41.60;;;25.33;;
56233;SDS011;42141;53.240;6.580;2023-04-10T00:55:27;41.42;;;25.20;;
56233;SDS011;42141;53.240;6.580;2023-04-10T00:57:53;43.03;;;25.98;;
56233;SDS011;42141;53.240;6.580;2023-04-10T01:00:20;41.58;;;25.48;;
56233;SDS011;42141;53.240;6.580;2023-04-10T01:02:47;41.88;;;25.63;;
56233;SDS011;42141;53.240;6.580;2023-04-10T01:05:12;39.20;;;24.88;;
56233;SDS011;42141;53.240;6.580;2023-04-10T01:10:42;44.55;;;26.35;;
56233;SDS011;42141;53.240;6.580;2023-04-10T01:13:27;43.15;;;27.08;;
56233;SDS011;42141;53.240;6.580;2023-04-10T01:16:17;41.80;;;26.63;;
56233;SDS011;42141;53.240;6.580;2023-04-10T01:19:17;42.83;;;28.83;;
56233;SDS011;42141;53.240;6.580;2023-04-10T01:21:44;44.65;;;26.80;;
56233;SDS011;42141;53.240;6.580;2023-04-10T01:29:20;47.75;;;29.23;;
56233;SDS011;42141;53.240;6.580;2023-04-10T01:31:57;50.67;;;29.05;;
56233;SDS011;42141;53.240;6.580;2023-04-10T01:34:34;50.47;;;29.80;;
56233;SDS011;42141;53.240;6.580;2023-04-10T01:37:15;48.60;;;28.38;;
56233;SDS011;42141;53.240;6.580;2023-04-10T01:39:46;49.13;;;30.13;;
56233;SDS011;42141;53.240;6.580;2023-04-10T01:42:21;50.50;;;30.40;;
56233;SDS011;42141;53.240;6.580;2023-04-10T01:44:48;50.50;;;30.13;;
56233;SDS011;42141;53.240;6.580;2023-04-10T01:47:16;50.47;;;30.50;;
56233;SDS011;42141;53.240;6.580;2023-04-10T01:49:46;51.83;;;31.20;;
56233;SDS011;42141;53.240;6.580;2023-04-10T01:52:13;51.83;;;31.58;;
56233;SDS011;42141;53.240;6.580;2023-04-10T01:54:40;52.47;;;31.90;;
56233;SDS011;42141;53.240;6.580;2023-04-10T01:57:09;57.03;;;33.03;;
56233;SDS011;42141;53.240;6.580;2023-04-10T01:59:38;49.88;;;32.03;;
56233;SDS011;42141;53.240;6.580;2023-04-10T02:02:03;54.10;;;31.48;;
56233;SDS011;42141;53.240;6.580;2023-04-10T02:04:31;50.78;;;30.40;;
56233;SDS011;42141;53.240;6.580;2023-04-10T02:12:14;53.72;;;32.13;;
56233;SDS011;42141;53.240;6.580;2023-04-10T02:14:45;51.13;;;33.15;;
56233;SDS011;42141;53.240;6.580;2023-04-10T02:17:13;49.97;;;30.95;;
56233;SDS011;42141;53.240;6.580;2023-04-10T02:19:42;52.42;;;31.67;;
56233;SDS011;42141;53.240;6.580;2023-04-10T02:22:12;50.22;;;31.25;;
56233;SDS011;42141;53.240;6.580;2023-04-10T02:24:40;51.90;;;30.10;;
56233;SDS011;42141;53.240;6.580;2023-04-10T02:27:05;46.50;;;29.38;;
56233;SDS011;42141;53.240;6.580;2023-04-10T02:29:31;51.60;;;30.33;;
56233;SDS011;42141;53.240;6.580;2023-04-10T02:31:57;46.75;;;30.52;;
56233;SDS011;42141;53.240;6.580;2023-04-10T02:34:24;52.25;;;31.67;;
56233;SDS011;42141;53.240;6.580;2023-04-10T02:36:50;52.63;;;31.40;;
56233;SDS011;42141;53.240;6.580;2023-04-10T02:39:16;50.38;;;31.23;;
56233;SDS011;42141;53.240;6.580;2023-04-10T02:41:41;51.47;;;31.48;;
56233;SDS011;42141;53.240;6.580;2023-04-10T02:44:07;54.92;;;31.52;;
56233;SDS011;42141;53.240;6.580;2023-04-10T02:46:33;56.08;;;31.92;;
56233;SDS011;42141;53.240;6.580;2023-04-10T02:48:58;50.13;;;30.88;;
56233;SDS011;42141;53.240;6.580;2023-04-10T02:51:25;55.40;;;31.23;;
56233;SDS011;42141;53.240;6.580;2023-04-10T02:53:51;50.45;;;31.67;;
56233;SDS011;42141;53.240;6.580;2023-04-10T02:56:17;49.05;;;30.45;;
56233;SDS011;42141;53.240;6.580;2023-04-10T02:58:43;49.05;;;29.88;;
56233;SDS011;42141;53.240;6.580;2023-04-10T03:01:10;50.63;;;30.98;;
56233;SDS011;42141;53.240;6.580;2023-04-10T03:03:36;48.25;;;29.23;;
56233;SDS011;42141;53.240;6.580;2023-04-10T03:06:02;54.20;;;30.13;;
56233;SDS011;42141;53.240;6.580;2023-04-10T03:08:28;48.22;;;30.52;;
56233;SDS011;42141;53.240;6.580;2023-04-10T03:10:54;45.58;;;29.75;;
56233;SDS011;42141;53.240;6.580;2023-04-10T03:13:20;49.58;;;29.50;;
56233;SDS011;42141;53.240;6.580;2023-04-10T03:15:47;45.67;;;29.50;;
56233;SDS011;42141;53.240;6.580;2023-04-10T03:18:13;51.58;;;29.33;;
56233;SDS011;42141;53.240;6.580;2023-04-10T03:20:38;48.40;;;29.73;;
56233;SDS011;42141;53.240;6.580;2023-04-10T03:23:04;50.88;;;27.98;;
56233;SDS011;42141;53.240;6.580;2023-04-10T03:25:34;51.13;;;29.60;;
56233;SDS011;42141;53.240;6.580;2023-04-10T03:28:00;51.03;;;30.63;;
56233;SDS011;42141;53.240;6.580;2023-04-10T03:30:26;46.08;;;29.02;;
56233;SDS011;42141;53.240;6.580;2023-04-10T03:32:52;48.40;;;27.98;;
56233;SDS011;42141;53.240;6.580;2023-04-10T03:35:18;47.97;;;30.23;;
56233;SDS011;42141;53.240;6.580;2023-04-10T03:37:44;46.33;;;27.85;;
56233;SDS011;42141;53.240;6.580;2023-04-10T03:40:09;46.70;;;28.50;;
56233;SDS011;42141;53.240;6.580;2023-04-10T03:42:36;48.60;;;29.58;;
56233;SDS011;42141;53.240;6.580;2023-04-10T03:45:01;45.38;;;28.23;;
56233;SDS011;42141;53.240;6.580;2023-04-10T03:47:32;44.75;;;27.58;;
56233;SDS011;42141;53.240;6.580;2023-04-10T03:49:58;44.78;;;29.90;;
56233;SDS011;42141;53.240;6.580;2023-04-10T03:52:24;49.83;;;30.45;;
56233;SDS011;42141;53.240;6.580;2023-04-10T03:54:52;50.95;;;28.63;;
56233;SDS011;42141;53.240;6.580;2023-04-10T03:57:18;50.63;;;30.55;;
56233;SDS011;42141;53.240;6.580;2023-04-10T03:59:48;46.75;;;28.70;;
56233;SDS011;42141;53.240;6.580;2023-04-10T04:02:14;48.25;;;29.17;;
56233;SDS011;42141;53.240;6.580;2023-04-10T04:04:40;50.95;;;30.00;;
56233;SDS011;42141;53.240;6.580;2023-04-10T04:07:05;49.60;;;29.63;;
56233;SDS011;42141;53.240;6.580;2023-04-10T04:09:31;54.65;;;31.08;;
56233;SDS011;42141;53.240;6.580;2023-04-10T04:11:57;57.30;;;32.33;;
56233;SDS011;42141;53.240;6.580;2023-04-10T04:14:22;55.67;;;32.15;;
56233;SDS011;42141;53.240;6.580;2023-04-10T04:16:48;51.45;;;30.63;;
56233;SDS011;42141;53.240;6.580;2023-04-10T04:19:14;51.28;;;31.60;;
56233;SDS011;42141;53.240;6.580;2023-04-10T04:21:40;52.38;;;31.83;;
56233;SDS011;42141;53.240;6.580;2023-04-10T04:24:05;53.25;;;30.52;;
56233;SDS011;42141;53.240;6.580;2023-04-10T04:26:31;52.20;;;31.38;;
56233;SDS011;42141;53.240;6.580;2023-04-10T04:28:58;57.35;;;32.90;;
56233;SDS011;42141;53.240;6.580;2023-04-10T04:31:24;54.40;;;32.63;;
56233;SDS011;42141;53.240;6.580;2023-04-10T04:33:56;52.38;;;31.75;;
56233;SDS011;42141;53.240;6.580;2023-04-10T04:36:25;52.05;;;32.83;;
56233;SDS011;42141;53.240;6.580;2023-04-10T04:38:52;53.35;;;31.50;;
56233;SDS011;42141;53.240;6.580;2023-04-10T04:41:17;50.22;;;32.95;;
56233;SDS011;42141;53.240;6.580;2023-04-10T04:43:46;53.50;;;31.98;;
56233;SDS011;42141;53.240;6.580;2023-04-10T04:46:16;59.05;;;33.53;;
56233;SDS011;42141;53.240;6.580;2023-04-10T04:48:41;55.80;;;35.35;;
56233;SDS011;42141;53.240;6.580;2023-04-10T04:51:07;54.70;;;32.25;;
56233;SDS011;42141;53.240;6.580;2023-04-10T04:53:33;51.60;;;31.27;;
56233;SDS011;42141;53.240;6.580;2023-04-10T04:55:59;59.67;;;35.55;;
56233;SDS011;42141;53.240;6.580;2023-04-10T04:58:24;54.88;;;34.10;;
56233;SDS011;42141;53.240;6.580;2023-04-10T05:00:50;60.33;;;33.97;;
56233;SDS011;42141;53.240;6.580;2023-04-10T05:03:16;58.22;;;34.75;;
56233;SDS011;42141;53.240;6.580;2023-04-10T05:05:42;58.78;;;35.30;;
56233;SDS011;42141;53.240;6.580;2023-04-10T05:08:08;55.47;;;34.35;;
56233;SDS011;42141;53.240;6.580;2023-04-10T05:10:34;59.10;;;34.25;;
56233;SDS011;42141;53.240;6.580;2023-04-10T05:13:00;53.55;;;32.58;;
56233;SDS011;42141;53.240;6.580;2023-04-10T05:15:26;60.08;;;36.65;;
56233;SDS011;42141;53.240;6.580;2023-04-10T05:17:52;55.90;;;32.95;;
56233;SDS011;42141;53.240;6.580;2023-04-10T05:20:18;54.38;;;33.47;;
56233;SDS011;42141;53.240;6.580;2023-04-10T05:22:46;55.55;;;33.90;;
56233;SDS011;42141;53.240;6.580;2023-04-10T05:25:12;54.40;;;33.67;;
56233;SDS011;42141;53.240;6.580;2023-04-10T05:27:37;56.10;;;33.63;;
56233;SDS011;42141;53.240;6.580;2023-04-10T05:30:03;56.90;;;33.83;;
56233;SDS011;42141;53.240;6.580;2023-04-10T05:32:29;57.53;;;33.53;;
56233;SDS011;42141;53.240;6.580;2023-04-10T05:34:55;56.47;;;34.30;;
56233;SDS011;42141;53.240;6.580;2023-04-10T05:37:21;58.75;;;34.05;;
56233;SDS011;42141;53.240;6.580;2023-04-10T05:39:46;58.58;;;35.35;;
56233;SDS011;42141;53.240;6.580;2023-04-10T05:42:12;55.70;;;33.33;;
56233;SDS011;42141;53.240;6.580;2023-04-10T05:44:38;57.03;;;33.88;;
56233;SDS011;42141;53.240;6.580;2023-04-10T05:47:04;50.90;;;33.90;;
56233;SDS011;42141;53.240;6.580;2023-04-10T05:49:30;58.17;;;32.95;;
56233;SDS011;42141;53.240;6.580;2023-04-10T05:51:55;55.15;;;34.17;;
56233;SDS011;42141;53.240;6.580;2023-04-10T05:54:21;55.67;;;34.72;;
56233;SDS011;42141;53.240;6.580;2023-04-10T05:56:47;56.78;;;33.60;;
56233;SDS011;42141;53.240;6.580;2023-04-10T05:59:12;58.60;;;35.15;;
56233;SDS011;42141;53.240;6.580;2023-04-10T06:01:38;53.85;;;32.65;;
56233;SDS011;42141;53.240;6.580;2023-04-10T06:04:05;55.90;;;33.72;;
56233;SDS011;42141;53.240;6.580;2023-04-10T06:06:30;56.85;;;33.40;;
56233;SDS011;42141;53.240;6.580;2023-04-10T06:08:57;53.65;;;32.63;;
56233;SDS011;42141;53.240;6.580;2023-04-10T06:11:23;57.78;;;33.42;;
56233;SDS011;42141;53.240;6.580;2023-04-10T06:13:49;54.42;;;33.55;;
56233;SDS011;42141;53.240;6.580;2023-04-10T06:16:15;48.58;;;31.95;;
56233;SDS011;42141;53.240;6.580;2023-04-10T06:18:41;54.60;;;33.22;;
56233;SDS011;42141;53.240;6.580;2023-04-10T06:21:07;49.88;;;32.17;;
56233;SDS011;42141;53.240;6.580;2023-04-10T06:23:33;53.05;;;32.90;;
56233;SDS011;42141;53.240;6.580;2023-04-10T06:25:59;55.83;;;33.50;;
56233;SDS011;42141;53.240;6.580;2023-04-10T06:28:25;49.85;;;33.03;;
56233;SDS011;42141;53.240;6.580;2023-04-10T06:30:51;56.47;;;33.63;;
56233;SDS011;42141;53.240;6.580;2023-04-10T06:33:17;50.55;;;33.20;;
56233;SDS011;42141;53.240;6.580;2023-04-10T06:35:42;52.83;;;31.55;;
56233;SDS011;42141;53.240;6.580;2023-04-10T06:38:08;51.67;;;32.85;;
56233;SDS011;42141;53.240;6.580;2023-04-10T06:40:33;50.53;;;32.20;;
56233;SDS011;42141;53.240;6.580;2023-04-10T06:42:59;50.65;;;31.75;;
56233;SDS011;42141;53.240;6.580;2023-04-10T06:45:25;55.53;;;32.58;;
56233;SDS011;42141;53.240;6.580;2023-04-10T06:47:51;51.20;;;31.50;;
56233;SDS011;42141;53.240;6.580;2023-04-10T06:50:17;51.28;;;30.27;;
56233;SDS011;42141;53.240;6.580;2023-04-10T06:52:43;46.55;;;29.65;;
56233;SDS011;42141;53.240;6.580;2023-04-10T06:55:10;47.13;;;30.50;;
56233;SDS011;42141;53.240;6.580;2023-04-10T06:57:37;47.40;;;30.45;;
56233;SDS011;42141;53.240;6.580;2023-04-10T07:00:03;45.53;;;29.13;;
56233;SDS011;42141;53.240;6.580;2023-04-10T07:02:30;47.20;;;29.23;;
56233;SDS011;42141;53.240;6.580;2023-04-10T07:04:55;46.38;;;29.50;;
56233;SDS011;42141;53.240;6.580;2023-04-10T07:07:21;51.00;;;30.50;;
56233;SDS011;42141;53.240;6.580;2023-04-10T07:09:47;47.50;;;30.15;;
56233;SDS011;42141;53.240;6.580;2023-04-10T07:12:13;48.83;;;31.15;;
56233;SDS011;42141;53.240;6.580;2023-04-10T07:14:39;57.10;;;30.58;;
56233;SDS011;42141;53.240;6.580;2023-04-10T07:17:05;52.38;;;31.02;;
56233;SDS011;42141;53.240;6.580;2023-04-10T07:19:30;49.40;;;30.50;;
56233;SDS011;42141;53.240;6.580;2023-04-10T07:21:56;49.42;;;29.45;;
56233;SDS011;42141;53.240;6.580;2023-04-10T07:24:22;49.85;;;29.95;;
56233;SDS011;42141;53.240;6.580;2023-04-10T07:26:48;50.22;;;31.02;;
56233;SDS011;42141;53.240;6.580;2023-04-10T07:29:14;50.17;;;30.20;;
56233;SDS011;42141;53.240;6.580;2023-04-10T07:31:40;48.67;;;30.27;;
56233;SDS011;42141;53.240;6.580;2023-04-10T07:34:06;50.05;;;30.15;;
56233;SDS011;42141;53.240;6.580;2023-04-10T07:36:32;49.53;;;29.90;;
56233;SDS011;42141;53.240;6.580;2023-04-10T07:38:57;53.53;;;29.60;;
56233;SDS011;42141;53.240;6.580;2023-04-10T07:41:23;44.05;;;29.00;;
56233;SDS011;42141;53.240;6.580;2023-04-10T07:43:49;46.55;;;29.75;;
56233;SDS011;42141;53.240;6.580;2023-04-10T07:46:15;45.10;;;30.05;;
56233;SDS011;42141;53.240;6.580;2023-04-10T07:48:41;49.10;;;32.13;;
56233;SDS011;42141;53.240;6.580;2023-04-10T07:51:08;49.55;;;32.20;;
56233;SDS011;42141;53.240;6.580;2023-04-10T07:53:34;55.60;;;31.88;;
56233;SDS011;42141;53.240;6.580;2023-04-10T07:56:01;50.25;;;30.80;;
56233;SDS011;42141;53.240;6.580;2023-04-10T07:58:27;46.63;;;30.90;;
56233;SDS011;42141;53.240;6.580;2023-04-10T08:00:52;49.30;;;29.73;;
56233;SDS011;42141;53.240;6.580;2023-04-10T08:03:21;42.13;;;28.02;;
56233;SDS011;42141;53.240;6.580;2023-04-10T08:05:47;44.25;;;28.40;;
56233;SDS011;42141;53.240;6.580;2023-04-10T08:08:14;42.70;;;28.15;;
56233;SDS011;42141;53.240;6.580;2023-04-10T08:10:40;46.40;;;28.42;;
56233;SDS011;42141;53.240;6.580;2023-04-10T08:13:06;41.95;;;28.63;;
56233;SDS011;42141;53.240;6.580;2023-04-10T08:15:35;42.08;;;27.98;;
56233;SDS011;42141;53.240;6.580;2023-04-10T08:18:01;37.97;;;22.48;;
56233;SDS011;42141;53.240;6.580;2023-04-10T08:20:27;34.75;;;21.17;;
56233;SDS011;42141;53.240;6.580;2023-04-10T08:22:53;34.45;;;20.85;;
56233;SDS011;42141;53.240;6.580;2023-04-10T08:25:18;45.97;;;21.05;;
56233;SDS011;42141;53.240;6.580;2023-04-10T08:27:44;29.73;;;19.48;;
56233;SDS011;42141;53.240;6.580;2023-04-10T08:30:10;32.83;;;20.73;;
56233;SDS011;42141;53.240;6.580;2023-04-10T08:32:37;29.08;;;19.58;;
56233;SDS011;42141;53.240;6.580;2023-04-10T08:35:03;29.42;;;19.48;;
56233;SDS011;42141;53.240;6.580;2023-04-10T08:37:29;30.20;;;19.35;;
56233;SDS011;42141;53.240;6.580;2023-04-10T08:39:55;27.52;;;19.02;;
56233;SDS011;42141;53.240;6.580;2023-04-10T08:42:21;28.08;;;18.85;;
56233;SDS011;42141;53.240;6.580;2023-04-10T08:44:47;31.23;;;19.67;;
56233;SDS011;42141;53.240;6.580;2023-04-10T08:47:14;29.05;;;19.35;;
56233;SDS011;42141;53.240;6.580;2023-04-10T08:52:21;31.70;;;20.17;;
56233;SDS011;42141;53.240;6.580;2023-04-10T08:54:55;30.98;;;18.65;;
56233;SDS011;42141;53.240;6.580;2023-04-10T08:57:23;28.55;;;19.15;;
56233;SDS011;42141;53.240;6.580;2023-04-10T08:59:51;28.77;;;19.20;;
56233;SDS011;42141;53.240;6.580;2023-04-10T09:02:17;30.27;;;18.52;;
56233;SDS011;42141;53.240;6.580;2023-04-10T09:04:47;27.25;;;19.15;;
56233;SDS011;42141;53.240;6.580;2023-04-10T09:07:14;27.83;;;19.13;;
56233;SDS011;42141;53.240;6.580;2023-04-10T09:09:40;25.33;;;18.48;;
56233;SDS011;42141;53.240;6.580;2023-04-10T09:12:06;29.52;;;19.10;;
56233;SDS011;42141;53.240;6.580;2023-04-10T09:14:33;29.80;;;18.27;;
56233;SDS011;42141;53.240;6.580;2023-04-10T09:17:10;31.25;;;19.40;;
56233;SDS011;42141;53.240;6.580;2023-04-10T09:19:44;24.50;;;17.70;;
56233;SDS011;42141;53.240;6.580;2023-04-10T09:22:12;25.05;;;16.92;;
56233;SDS011;42141;53.240;6.580;2023-04-10T09:24:39;25.55;;;16.73;;
56233;SDS011;42141;53.240;6.580;2023-04-10T09:27:06;21.60;;;15.23;;
56233;SDS011;42141;53.240;6.580;2023-04-10T09:29:43;24.58;;;16.35;;
56233;SDS011;42141;53.240;6.580;2023-04-10T09:32:10;23.75;;;14.27;;
56233;SDS011;42141;53.240;6.580;2023-04-10T09:34:55;25.25;;;15.50;;
56233;SDS011;42141;53.240;6.580;2023-04-10T09:37:29;20.88;;;14.48;;
56233;SDS011;42141;53.240;6.580;2023-04-10T09:39:56;21.60;;;13.93;;
56233;SDS011;42141;53.240;6.580;2023-04-10T09:42:32;21.50;;;14.05;;
56233;SDS011;42141;53.240;6.580;2023-04-10T09:45:01;20.15;;;13.40;;
56233;SDS011;42141;53.240;6.580;2023-04-10T09:47:28;20.83;;;14.07;;
56233;SDS011;42141;53.240;6.580;2023-04-10T09:49:55;20.88;;;14.55;;
56233;SDS011;42141;53.240;6.580;2023-04-10T09:52:23;21.92;;;13.98;;
56233;SDS011;42141;53.240;6.580;2023-04-10T09:54:50;20.15;;;13.18;;
56233;SDS011;42141;53.240;6.580;2023-04-10T09:57:31;17.52;;;12.88;;
56233;SDS011;42141;53.240;6.580;2023-04-10T09:59:59;18.92;;;13.20;;
56233;SDS011;42141;53.240;6.580;2023-04-10T10:02:32;21.20;;;13.55;;
56233;SDS011;42141;53.240;6.580;2023-04-10T10:07:30;20.42;;;13.77;;
56233;SDS011;42141;53.240;6.580;2023-04-10T10:09:56;22.10;;;12.93;;
56233;SDS011;42141;53.240;6.580;2023-04-10T10:17:36;22.73;;;13.30;;
56233;SDS011;42141;53.240;6.580;2023-04-10T10:20:09;16.30;;;11.82;;
56233;SDS011;42141;53.240;6.580;2023-04-10T10:22:36;17.58;;;12.20;;
56233;SDS011;42141;53.240;6.580;2023-04-10T10:25:02;18.70;;;12.02;;
56233;SDS011;42141;53.240;6.580;2023-04-10T10:27:30;15.70;;;11.40;;
56233;SDS011;42141;53.240;6.580;2023-04-10T10:29:59;18.08;;;11.43;;
56233;SDS011;42141;53.240;6.580;2023-04-10T10:32:25;17.85;;;11.82;;
56233;SDS011;42141;53.240;6.580;2023-04-10T10:34:52;21.60;;;12.38;;
56233;SDS011;42141;53.240;6.580;2023-04-10T10:37:18;13.77;;;10.23;;
56233;SDS011;42141;53.240;6.580;2023-04-10T10:47:41;14.75;;;9.95;;
56233;SDS011;42141;53.240;6.580;2023-04-10T10:57:56;10.77;;;8.00;;
56233;SDS011;42141;53.240;6.580;2023-04-10T11:00:24;11.20;;;7.93;;
56233;SDS011;42141;53.240;6.580;2023-04-10T11:08:34;10.98;;;7.50;;
56233;SDS011;42141;53.240;6.580;2023-04-10T11:13:34;10.10;;;7.00;;
56233;SDS011;42141;53.240;6.580;2023-04-10T11:16:02;10.80;;;7.07;;
56233;SDS011;42141;53.240;6.580;2023-04-10T11:21:14;9.57;;;7.03;;
56233;SDS011;42141;53.240;6.580;2023-04-10T11:24:04;10.48;;;8.35;;
56233;SDS011;42141;53.240;6.580;2023-04-10T11:29:04;11.00;;;6.40;;
56233;SDS011;42141;53.240;6.580;2023-04-10T11:31:36;9.18;;;6.93;;
56233;SDS011;42141;53.240;6.580;2023-04-10T11:34:06;8.05;;;6.15;;
56233;SDS011;42141;53.240;6.580;2023-04-10T11:36:36;10.45;;;6.20;;
56233;SDS011;42141;53.240;6.580;2023-04-10T11:39:04;8.73;;;5.50;;
56233;SDS011;42141;53.240;6.580;2023-04-10T11:41:44;8.65;;;5.65;;
56233;SDS011;42141;53.240;6.580;2023-04-10T11:44:15;6.80;;;5.32;;
56233;SDS011;42141;53.240;6.580;2023-04-10T11:46:45;7.45;;;5.30;;
56233;SDS011;42141;53.240;6.580;2023-04-10T11:49:15;6.32;;;4.97;;
56233;SDS011;42141;53.240;6.580;2023-04-10T11:51:44;10.02;;;4.60;;
56233;SDS011;42141;53.240;6.580;2023-04-10T11:54:11;7.22;;;4.85;;
56233;SDS011;42141;53.240;6.580;2023-04-10T11:56:40;6.63;;;4.75;;
56233;SDS011;42141;53.240;6.580;2023-04-10T11:59:08;7.65;;;4.43;;
56233;SDS011;42141;53.240;6.580;2023-04-10T12:01:35;5.45;;;4.60;;
56233;SDS011;42141;53.240;6.580;2023-04-10T12:04:01;7.38;;;4.85;;
56233;SDS011;42141;53.240;6.580;2023-04-10T12:06:27;7.80;;;4.85;;
56233;SDS011;42141;53.240;6.580;2023-04-10T12:08:53;5.60;;;3.95;;
56233;SDS011;42141;53.240;6.580;2023-04-10T12:11:28;5.45;;;4.10;;
56233;SDS011;42141;53.240;6.580;2023-04-10T12:13:54;4.30;;;3.83;;
56233;SDS011;42141;53.240;6.580;2023-04-10T12:16:21;6.03;;;4.00;;
56233;SDS011;42141;53.240;6.580;2023-04-10T12:18:47;6.32;;;3.90;;
56233;SDS011;42141;53.240;6.580;2023-04-10T12:21:14;5.15;;;3.88;;
56233;SDS011;42141;53.240;6.580;2023-04-10T12:23:40;5.10;;;3.60;;
56233;SDS011;42141;53.240;6.580;2023-04-10T12:26:13;5.10;;;3.35;;
56233;SDS011;42141;53.240;6.580;2023-04-10T12:28:52;4.63;;;3.30;;
56233;SDS011;42141;53.240;6.580;2023-04-10T12:31:52;4.43;;;3.38;;
56233;SDS011;42141;53.240;6.580;2023-04-10T12:34:11;5.43;;;3.33;;
56233;SDS011;42141;53.240;6.580;2023-04-10T12:36:42;6.00;;;3.13;;
56233;SDS011;42141;53.240;6.580;2023-04-10T12:39:23;11.82;;;3.80;;
56233;SDS011;42141;53.240;6.580;2023-04-10T12:41:52;5.05;;;3.03;;
56233;SDS011;42141;53.240;6.580;2023-04-10T12:44:17;4.45;;;3.08;;
56233;SDS011;42141;53.240;6.580;2023-04-10T12:46:44;6.15;;;2.90;;
56233;SDS011;42141;53.240;6.580;2023-04-10T12:49:11;5.25;;;3.50;;
56233;SDS011;42141;53.240;6.580;2023-04-10T12:51:48;4.68;;;3.05;;
56233;SDS011;42141;53.240;6.580;2023-04-10T12:54:35;8.68;;;3.10;;
56233;SDS011;42141;53.240;6.580;2023-04-10T12:57:01;5.47;;;3.55;;
56233;SDS011;42141;53.240;6.580;2023-04-10T12:59:30;5.10;;;2.75;;
56233;SDS011;42141;53.240;6.580;2023-04-10T13:01:56;5.00;;;2.80;;
56233;SDS011;42141;53.240;6.580;2023-04-10T13:04:22;4.00;;;3.13;;
56233;SDS011;42141;53.240;6.580;2023-04-10T13:06:48;3.85;;;2.95;;
56233;SDS011;42141;53.240;6.580;2023-04-10T13:09:16;6.95;;;3.33;;
56233;SDS011;42141;53.240;6.580;2023-04-10T13:11:42;5.13;;;3.15;;
56233;SDS011;42141;53.240;6.580;2023-04-10T13:14:08;4.47;;;2.80;;
56233;SDS011;42141;53.240;6.580;2023-04-10T13:16:35;6.85;;;2.90;;
56233;SDS011;42141;53.240;6.580;2023-04-10T13:19:01;4.35;;;3.05;;
56233;SDS011;42141;53.240;6.580;2023-04-10T13:21:27;4.32;;;3.17;;
56233;SDS011;42141;53.240;6.580;2023-04-10T13:23:53;4.50;;;3.20;;
56233;SDS011;42141;53.240;6.580;2023-04-10T13:26:22;7.93;;;3.33;;
56233;SDS011;42141;53.240;6.580;2023-04-10T13:28:48;7.55;;;3.33;;
56233;SDS011;42141;53.240;6.580;2023-04-10T13:31:14;4.93;;;2.95;;
56233;SDS011;42141;53.240;6.580;2023-04-10T13:33:46;6.00;;;3.40;;
56233;SDS011;42141;53.240;6.580;2023-04-10T13:36:12;7.37;;;3.07;;
56233;SDS011;42141;53.240;6.580;2023-04-10T13:38:39;7.20;;;3.70;;
56233;SDS011;42141;53.240;6.580;2023-04-10T13:41:05;5.97;;;3.17;;
56233;SDS011;42141;53.240;6.580;2023-04-10T13:43:31;9.80;;;3.33;;
56233;SDS011;42141;53.240;6.580;2023-04-10T13:45:56;4.72;;;3.10;;
56233;SDS011;42141;53.240;6.580;2023-04-10T13:48:22;5.38;;;3.30;;
56233;SDS011;42141;53.240;6.580;2023-04-10T13:50:48;6.05;;;3.78;;
56233;SDS011;42141;53.240;6.580;2023-04-10T13:53:13;5.90;;;3.70;;
56233;SDS011;42141;53.240;6.580;2023-04-10T13:55:39;14.00;;;3.88;;
56233;SDS011;42141;53.240;6.580;2023-04-10T13:58:08;5.32;;;4.03;;
56233;SDS011;42141;53.240;6.580;2023-04-10T14:00:42;5.57;;;4.10;;
56233;SDS011;42141;53.240;6.580;2023-04-10T14:03:09;5.53;;;3.28;;
56233;SDS011;42141;53.240;6.580;2023-04-10T14:05:36;4.28;;;3.17;;
56233;SDS011;42141;53.240;6.580;2023-04-10T14:08:03;5.43;;;3.75;;
56233;SDS011;42141;53.240;6.580;2023-04-10T14:10:29;5.57;;;2.90;;
56233;SDS011;42141;53.240;6.580;2023-04-10T14:12:55;4.25;;;3.33;;
56233;SDS011;42141;53.240;6.580;2023-04-10T14:15:21;7.40;;;3.42;;
56233;SDS011;42141;53.240;6.580;2023-04-10T14:17:47;5.20;;;3.47;;
56233;SDS011;42141;53.240;6.580;2023-04-10T14:20:12;9.77;;;3.55;;
56233;SDS011;42141;53.240;6.580;2023-04-10T14:22:38;5.93;;;3.20;;
56233;SDS011;42141;53.240;6.580;2023-04-10T14:25:04;5.50;;;3.25;;
56233;SDS011;42141;53.240;6.580;2023-04-10T14:27:30;5.38;;;3.35;;
56233;SDS011;42141;53.240;6.580;2023-04-10T14:29:57;5.90;;;3.53;;
56233;SDS011;42141;53.240;6.580;2023-04-10T14:32:23;4.95;;;3.42;;
56233;SDS011;42141;53.240;6.580;2023-04-10T14:34:48;4.88;;;2.88;;
56233;SDS011;42141;53.240;6.580;2023-04-10T14:37:14;4.13;;;3.00;;
56233;SDS011;42141;53.240;6.580;2023-04-10T14:39:40;5.95;;;2.65;;
56233;SDS011;42141;53.240;6.580;2023-04-10T14:42:07;4.53;;;3.00;;
56233;SDS011;42141;53.240;6.580;2023-04-10T14:44:33;4.43;;;3.13;;
56233;SDS011;42141;53.240;6.580;2023-04-10T14:46:58;4.28;;;3.30;;
56233;SDS011;42141;53.240;6.580;2023-04-10T14:49:24;8.70;;;2.90;;
56233;SDS011;42141;53.240;6.580;2023-04-10T14:51:50;4.97;;;3.15;;
56233;SDS011;42141;53.240;6.580;2023-04-10T14:54:15;8.30;;;3.40;;
56233;SDS011;42141;53.240;6.580;2023-04-10T14:56:43;4.15;;;2.97;;
56233;SDS011;42141;53.240;6.580;2023-04-10T14:59:09;6.82;;;3.15;;
56233;SDS011;42141;53.240;6.580;2023-04-10T15:01:35;4.88;;;3.25;;
56233;SDS011;42141;53.240;6.580;2023-04-10T15:04:01;6.40;;;3.40;;
56233;SDS011;42141;53.240;6.580;2023-04-10T15:06:26;5.07;;;2.95;;
56233;SDS011;42141;53.240;6.580;2023-04-10T15:08:53;6.60;;;3.25;;
56233;SDS011;42141;53.240;6.580;2023-04-10T15:11:20;5.10;;;3.10;;
56233;SDS011;42141;53.240;6.580;2023-04-10T15:13:46;6.07;;;2.60;;
56233;SDS011;42141;53.240;6.580;2023-04-10T15:16:11;4.78;;;2.88;;
56233;SDS011;42141;53.240;6.580;2023-04-10T15:18:37;4.45;;;3.17;;
56233;SDS011;42141;53.240;6.580;2023-04-10T15:21:03;7.60;;;3.50;;
56233;SDS011;42141;53.240;6.580;2023-04-10T15:23:29;5.03;;;3.55;;